Time;durP1;ratioP1;P1;durP2;ratioP2;P2;SDS_P1;SDS_P2;PMS_P1;PMS_P2;Temp;Humidity;BMP_temperature;BMP_pressure;BME280_temperature;BME280_humidity;BME280_pressure;Samples;Min_cycle;Max_cycle;Signal;HPM_P1;HPM_P2
2021/12/07 04:03:09;;;;;;;52.28;26.63;;;2.50;95.40;;;;;;5132663;27;20488;-48
2021/12/07 04:05:44;;;;;;;81.40;29.08;;;2.50;95.40;;;;;;5131937;27;20029;-37
2021/12/07 04:08:21;;;;;;;61.90;29.95;;;2.60;95.30;;;;;;5132449;27;20366;-52
2021/12/07 04:10:48;;;;;;;54.17;28.15;;;2.70;95.30;;;;;;5132135;27;20023;-38
2021/12/07 04:13:14;;;;;;;48.88;24.60;;;2.70;95.30;;;;;;5130970;28;20046;-38
2021/12/07 04:15:39;;;;;;;43.65;22.77;;;2.80;95.10;;;;;;5132269;28;20094;-49
2021/12/07 04:18:05;;;;;;;42.85;22.10;;;2.80;95.00;;;;;;5132344;27;20022;-48
2021/12/07 04:20:31;;;;;;;36.03;19.33;;;2.80;94.80;;;;;;5132137;27;20098;-50
2021/12/07 04:22:57;;;;;;;42.38;18.75;;;2.80;94.80;;;;;;5131722;27;20031;-48
2021/12/07 04:25:23;;;;;;;37.83;21.42;;;2.90;94.80;;;;;;5131994;27;20019;-38
2021/12/07 04:27:51;;;;;;;42.42;21.30;;;2.90;94.60;;;;;;5130341;28;20047;-37
2021/12/07 04:30:21;;;;;;;38.08;18.70;;;2.90;94.60;;;;;;5132086;27;20129;-38
2021/12/07 04:32:47;;;;;;;29.02;15.07;;;2.90;94.60;;;;;;5132023;27;20032;-48
2021/12/07 04:35:13;;;;;;;31.67;17.30;;;3.00;94.30;;;;;;5130647;28;20030;-52
2021/12/07 04:37:40;;;;;;;34.38;16.13;;;2.90;94.10;;;;;;5131301;27;20089;-51
2021/12/07 04:40:08;;;;;;;20.65;12.52;;;3.00;94.10;;;;;;5131216;27;20076;-38
2021/12/07 04:42:33;;;;;;;31.05;15.70;;;3.00;94.20;;;;;;5131063;27;20027;-38
2021/12/07 04:45:03;;;;;;;33.63;15.82;;;3.00;94.30;;;;;;5131125;27;20030;-39
2021/12/07 04:58:24;;;;;;;33.17;16.83;;;3.10;94.50;;;;;;5131702;28;20030;-38
2021/12/07 05:00:50;;;;;;;36.03;14.45;;;3.10;94.50;;;;;;5130184;28;20487;-37
2021/12/07 05:03:16;;;;;;;37.97;17.63;;;3.20;94.60;;;;;;5131036;27;20104;-37
2021/12/07 05:05:47;;;;;;;43.28;18.25;;;3.10;94.60;;;;;;5129300;28;20102;-38
2021/12/07 05:08:16;;;;;;;40.33;19.75;;;3.20;94.60;;;;;;5130709;27;20528;-37
2021/12/07 05:13:27;;;;;;;29.92;15.48;;;3.30;94.40;;;;;;5123152;27;20103;-38
2021/12/07 05:18:36;;;;;;;33.80;17.25;;;3.30;94.40;;;;;;5116534;28;20028;-39
2021/12/07 05:24:02;;;;;;;29.60;15.60;;;3.30;94.50;;;;;;5117832;28;20038;-40
2021/12/07 05:40:10;;;;;;;34.45;13.95;;;3.40;94.60;;;;;;5116357;28;20405;-37
2021/12/07 05:42:40;;;;;;;30.42;14.40;;;3.50;94.60;;;;;;5116327;27;20043;-39
2021/12/07 05:45:10;;;;;;;32.22;14.20;;;3.50;94.60;;;;;;5116216;28;20099;-37
2021/12/07 05:47:36;;;;;;;35.25;13.90;;;3.40;94.50;;;;;;5114623;28;20027;-37
2021/12/07 05:50:04;;;;;;;32.83;15.82;;;3.50;94.50;;;;;;5117220;28;20518;-38
2021/12/07 05:52:30;;;;;;;37.95;13.43;;;3.50;94.50;;;;;;5115889;27;20035;-38
2021/12/07 05:54:56;;;;;;;33.90;15.00;;;3.60;94.40;;;;;;5115691;28;20035;-38
2021/12/07 05:57:21;;;;;;;28.48;13.07;;;3.50;94.40;;;;;;5115923;28;20090;-38
2021/12/07 05:59:47;;;;;;;35.38;12.23;;;3.60;94.30;;;;;;5116513;28;20111;-43
2021/12/07 06:02:13;;;;;;;27.85;12.65;;;3.60;94.30;;;;;;5115457;28;20591;-38
2021/12/07 06:04:38;;;;;;;22.25;9.63;;;3.60;94.40;;;;;;5115446;28;20032;-39
2021/12/07 06:07:04;;;;;;;34.53;13.80;;;3.60;94.40;;;;;;5115620;28;20042;-42
2021/12/07 06:09:31;;;;;;;30.00;12.07;;;3.70;94.50;;;;;;5115882;28;20057;-39
2021/12/07 06:11:57;;;;;;;34.15;13.90;;;3.70;94.30;;;;;;5115904;28;20032;-39
2021/12/07 06:14:30;;;;;;;36.65;15.48;;;3.70;94.20;;;;;;5115426;28;20035;-39
2021/12/07 06:16:56;;;;;;;36.70;12.75;;;3.80;94.00;;;;;;5115580;28;20116;-39
2021/12/07 06:19:22;;;;;;;20.55;12.77;;;3.80;93.90;;;;;;5115616;28;20459;-39
2021/12/07 06:21:48;;;;;;;32.92;11.80;;;3.80;93.70;;;;;;5115108;28;20024;-39
2021/12/07 06:24:14;;;;;;;26.55;8.82;;;3.80;93.60;;;;;;5114416;28;20024;-39
2021/12/07 06:26:39;;;;;;;32.55;12.10;;;3.80;93.70;;;;;;5114506;28;20024;-38
2021/12/07 06:29:05;;;;;;;24.83;10.93;;;3.80;93.80;;;;;;5114904;28;20022;-39
2021/12/07 06:31:31;;;;;;;27.65;9.70;;;3.80;93.80;;;;;;5115541;28;20031;-40
2021/12/07 06:33:57;;;;;;;29.50;8.85;;;3.80;93.80;;;;;;5114925;28;20036;-38
2021/12/07 06:36:24;;;;;;;22.13;11.20;;;3.80;93.90;;;;;;5114749;28;20074;-38
2021/12/07 06:38:51;;;;;;;42.83;11.85;;;3.80;94.00;;;;;;5115535;28;20046;-38
2021/12/07 06:41:17;;;;;;;32.83;11.82;;;3.70;94.00;;;;;;5115465;28;20024;-39
2021/12/07 06:43:42;;;;;;;30.52;13.70;;;3.80;94.10;;;;;;5113715;28;20023;-39
2021/12/07 06:46:08;;;;;;;37.53;12.20;;;3.80;94.10;;;;;;5113696;28;20106;-39
2021/12/07 06:48:35;;;;;;;29.63;12.57;;;3.70;94.10;;;;;;5113602;28;20048;-37
2021/12/07 06:51:04;;;;;;;38.67;14.60;;;3.70;94.10;;;;;;5114352;28;20019;-38
2021/12/07 06:53:35;;;;;;;37.70;13.13;;;3.70;94.20;;;;;;5113107;28;20031;-38
2021/12/07 06:56:06;;;;;;;38.10;13.82;;;3.70;94.20;;;;;;5113226;28;20027;-37
2021/12/07 06:58:33;;;;;;;39.15;14.90;;;3.70;94.20;;;;;;5113920;28;20020;-38
2021/12/07 07:00:59;;;;;;;29.85;9.32;;;3.80;94.20;;;;;;5113807;28;20043;-39
2021/12/07 07:03:26;;;;;;;23.08;10.38;;;3.70;94.30;;;;;;5115631;28;20110;-38
2021/12/07 07:05:52;;;;;;;34.25;11.95;;;3.70;94.30;;;;;;5114906;28;20023;-38
2021/12/07 07:08:18;;;;;;;34.83;12.05;;;3.80;94.30;;;;;;5112689;28;20023;-38
2021/12/07 07:10:44;;;;;;;24.65;11.90;;;3.80;94.10;;;;;;5114126;28;20016;-38
2021/12/07 07:13:12;;;;;;;35.80;10.13;;;3.80;94.10;;;;;;5114222;28;20396;-38
2021/12/07 07:15:38;;;;;;;37.92;12.35;;;3.80;94.20;;;;;;5114205;28;20034;-38
2021/12/07 07:18:04;;;;;;;20.45;7.35;;;3.70;94.20;;;;;;5114117;28;20024;-37
2021/12/07 07:20:30;;;;;;;37.03;11.52;;;3.80;94.00;;;;;;5114141;28;20423;-44
2021/12/07 07:22:56;;;;;;;32.45;11.48;;;3.80;94.10;;;;;;5113882;28;20023;-38
2021/12/07 07:25:21;;;;;;;27.15;11.73;;;3.80;94.00;;;;;;5116020;28;20047;-38
2021/12/07 07:27:47;;;;;;;33.80;11.40;;;3.80;93.90;;;;;;5112796;28;20383;-38
2021/12/07 07:30:16;;;;;;;38.58;11.50;;;3.80;94.00;;;;;;5114157;28;20054;-38
2021/12/07 07:32:42;;;;;;;32.75;11.98;;;3.70;94.10;;;;;;5114512;28;20062;-38
2021/12/07 07:35:09;;;;;;;34.58;11.18;;;3.60;94.10;;;;;;5115326;28;20019;-39
2021/12/07 07:37:36;;;;;;;25.77;11.30;;;3.60;94.20;;;;;;5114421;28;20024;-39
2021/12/07 07:40:04;;;;;;;41.40;12.38;;;3.50;94.20;;;;;;5113009;28;20023;-40
2021/12/07 07:42:30;;;;;;;26.52;10.88;;;3.40;94.40;;;;;;5113402;28;20027;-38
2021/12/07 07:44:56;;;;;;;36.22;13.43;;;3.40;94.40;;;;;;5112188;28;20015;-38
2021/12/07 07:47:21;;;;;;;30.42;11.70;;;3.40;94.50;;;;;;5113629;28;20011;-37
2021/12/07 07:49:47;;;;;;;30.05;11.93;;;3.40;94.50;;;;;;5111457;28;20055;-38
2021/12/07 07:52:13;;;;;;;20.10;8.77;;;3.30;94.60;;;;;;5111923;28;20032;-40
2021/12/07 07:54:39;;;;;;;32.17;10.40;;;3.30;94.60;;;;;;5113369;28;20028;-38
2021/12/07 07:57:04;;;;;;;30.83;11.40;;;3.40;94.70;;;;;;5111682;28;20058;-37
2021/12/07 07:59:30;;;;;;;32.78;12.93;;;3.30;94.60;;;;;;5112864;28;20024;-38
2021/12/07 14:03:09;;;;;;;8.82;4.00;;;5.60;82.50;;;;;;5132006;27;20104;-53
2021/12/07 14:05:41;;;;;;;13.40;5.57;;;5.60;81.90;;;;;;5131281;28;20051;-50
2021/12/07 14:08:09;;;;;;;16.17;4.10;;;5.70;82.10;;;;;;5113383;28;20019;-54
2021/12/07 14:10:42;;;;;;;11.07;3.88;;;5.70;81.90;;;;;;5131195;28;20094;-49
2021/12/07 14:13:07;;;;;;;11.45;4.65;;;5.80;81.60;;;;;;5131338;28;20015;-50
2021/12/07 14:15:39;;;;;;;19.35;5.35;;;5.80;81.70;;;;;;5131155;28;20031;-51
2021/12/07 14:18:14;;;;;;;20.70;5.18;;;5.70;82.20;;;;;;5131094;28;20024;-51
2021/12/07 14:20:48;;;;;;;16.15;4.50;;;5.60;82.00;;;;;;5130649;27;20020;-54
2021/12/07 14:23:16;;;;;;;18.83;5.28;;;5.60;82.10;;;;;;5131222;27;20089;-50
2021/12/07 14:25:50;;;;;;;21.30;7.53;;;5.70;81.60;;;;;;5131018;27;20027;-50
2021/12/07 14:28:51;;;;;;;11.80;5.55;;;5.60;81.80;;;;;;5130193;28;20474;-53
2021/12/07 14:31:22;;;;;;;9.90;3.95;;;5.60;82.30;;;;;;5118555;27;20084;-50
2021/12/07 14:34:07;;;;;;;20.10;3.95;;;5.60;81.90;;;;;;5131325;27;20019;-50
2021/12/07 14:36:40;;;;;;;17.67;6.07;;;5.60;80.60;;;;;;5131035;27;20479;-54
2021/12/07 14:39:27;;;;;;;14.07;3.60;;;5.50;80.60;;;;;;5129432;28;20051;-53
2021/12/07 14:41:54;;;;;;;7.97;2.70;;;5.50;78.70;;;;;;5131242;27;20023;-50
2021/12/07 14:44:26;;;;;;;6.88;2.10;;;5.50;78.30;;;;;;5131103;27;20466;-49
2021/12/07 14:46:52;;;;;;;10.30;2.22;;;5.50;77.70;;;;;;5131108;27;20024;-52
2021/12/07 14:49:19;;;;;;;5.88;2.80;;;5.40;77.60;;;;;;5130475;28;20043;-52
2021/12/07 14:51:46;;;;;;;6.75;2.85;;;5.30;77.30;;;;;;5130973;27;20023;-51
2021/12/07 14:54:14;;;;;;;3.83;2.35;;;5.30;77.10;;;;;;5129003;27;20027;-52
2021/12/07 14:56:40;;;;;;;5.13;2.10;;;5.30;76.90;;;;;;5130201;27;20080;-52
2021/12/07 14:59:09;;;;;;;11.98;4.78;;;5.30;77.50;;;;;;5129283;28;20072;-52
2021/12/07 15:01:41;;;;;;;7.30;4.15;;;5.10;77.70;;;;;;5129992;27;20051;-56
2021/12/07 15:04:09;;;;;;;3.00;2.28;;;5.10;78.30;;;;;;5128652;28;20475;-51
2021/12/07 15:06:36;;;;;;;15.68;4.15;;;5.00;78.80;;;;;;5128810;28;20023;-49
2021/12/07 15:09:07;;;;;;;7.65;2.50;;;4.90;78.90;;;;;;5129934;27;20479;-49
2021/12/07 15:11:41;;;;;;;6.60;2.97;;;4.90;79.00;;;;;;5129449;28;20059;-51
2021/12/07 15:14:09;;;;;;;5.95;2.45;;;4.90;78.50;;;;;;5116398;28;20030;-49
2021/12/07 15:16:37;;;;;;;12.60;4.00;;;4.90;78.30;;;;;;5116684;28;20157;-52
2021/12/07 15:19:04;;;;;;;6.57;2.90;;;4.90;78.00;;;;;;5116284;28;20099;-53
2021/12/07 15:21:32;;;;;;;6.93;2.20;;;4.80;77.70;;;;;;5115977;28;20038;-51
2021/12/07 15:24:02;;;;;;;6.85;2.33;;;4.80;78.00;;;;;;5116175;28;20130;-54
2021/12/07 15:26:29;;;;;;;4.88;2.15;;;4.80;77.70;;;;;;5116290;28;20050;-50
2021/12/07 15:28:55;;;;;;;5.60;2.40;;;4.70;77.60;;;;;;5115515;28;20031;-52
2021/12/07 15:31:23;;;;;;;8.98;3.30;;;4.60;78.00;;;;;;5114249;28;20028;-49
2021/12/07 15:33:50;;;;;;;5.85;2.22;;;4.60;78.20;;;;;;5114075;28;20047;-52
2021/12/07 15:36:21;;;;;;;8.00;2.28;;;4.60;77.80;;;;;;5115152;28;20024;-49
2021/12/07 15:38:48;;;;;;;12.20;2.75;;;4.60;78.20;;;;;;5115679;28;20063;-49
2021/12/07 15:41:14;;;;;;;12.23;3.40;;;4.50;78.50;;;;;;5114821;28;20072;-53
2021/12/07 15:43:42;;;;;;;13.32;3.53;;;4.50;78.20;;;;;;5116597;28;20111;-51
2021/12/07 15:46:17;;;;;;;8.95;2.03;;;4.50;78.40;;;;;;5115671;28;20431;-38
2021/12/07 15:48:44;;;;;;;12.73;2.85;;;4.40;78.60;;;;;;5115467;28;20015;-39
2021/12/07 15:51:11;;;;;;;6.22;2.50;;;4.40;78.90;;;;;;5115861;28;20020;-39
2021/12/07 15:53:38;;;;;;;4.55;1.55;;;4.40;78.60;;;;;;5115322;28;20466;-39
2021/12/07 15:56:04;;;;;;;7.15;2.72;;;4.40;78.40;;;;;;5115791;28;20552;-38
2021/12/07 15:58:30;;;;;;;8.00;2.05;;;4.30;78.30;;;;;;5115365;28;20023;-39
2021/12/07 16:00:58;;;;;;;6.88;2.33;;;4.30;78.30;;;;;;5115136;28;20165;-44
2021/12/07 16:03:28;;;;;;;7.53;2.30;;;4.30;78.30;;;;;;5116413;28;20100;-40
2021/12/07 16:05:57;;;;;;;9.05;2.33;;;4.30;78.20;;;;;;5117493;28;20371;-38
2021/12/07 16:08:27;;;;;;;6.10;1.85;;;4.30;78.10;;;;;;5116787;28;20026;-38
2021/12/07 16:10:56;;;;;;;10.75;1.90;;;4.30;78.20;;;;;;5114811;28;20436;-39
2021/12/07 16:13:31;;;;;;;10.13;2.80;;;4.30;78.30;;;;;;5116194;28;20107;-39
2021/12/07 16:16:04;;;;;;;8.10;1.80;;;4.20;78.70;;;;;;5116872;28;20059;-42
2021/12/07 16:18:32;;;;;;;5.82;2.13;;;4.20;78.70;;;;;;5115228;28;20187;-39
2021/12/07 16:20:59;;;;;;;12.43;2.97;;;4.30;78.30;;;;;;5114123;28;20055;-40
2021/12/07 16:23:29;;;;;;;7.80;2.83;;;4.20;78.30;;;;;;5115397;28;20023;-40
2021/12/07 16:25:55;;;;;;;5.80;2.70;;;4.20;78.50;;;;;;5114404;28;20098;-40
2021/12/07 16:28:21;;;;;;;12.55;2.33;;;4.10;78.60;;;;;;5114836;28;20292;-39
2021/12/07 16:30:46;;;;;;;4.10;2.30;;;4.10;78.90;;;;;;5115092;28;20023;-39
2021/12/07 16:33:12;;;;;;;3.55;2.55;;;4.20;78.30;;;;;;5115418;28;20019;-53
2021/12/07 16:35:38;;;;;;;6.95;2.33;;;4.20;77.90;;;;;;5116815;28;20023;-51
2021/12/07 16:38:05;;;;;;;6.88;2.45;;;4.20;78.00;;;;;;5115420;28;20024;-49
2021/12/07 16:40:31;;;;;;;4.68;2.45;;;4.20;78.30;;;;;;5114937;28;20015;-49
2021/12/07 16:42:58;;;;;;;5.53;2.42;;;4.20;78.10;;;;;;5115609;28;20475;-53
2021/12/07 16:45:27;;;;;;;9.43;2.65;;;4.20;78.20;;;;;;5113600;28;20026;-49
2021/12/07 16:47:54;;;;;;;5.07;2.00;;;4.20;78.00;;;;;;5114765;28;20451;-48
2021/12/07 16:50:21;;;;;;;4.32;2.05;;;4.10;78.20;;;;;;5114572;28;20020;-50
2021/12/07 16:52:47;;;;;;;8.40;2.50;;;4.00;78.40;;;;;;5114530;28;20061;-51
2021/12/07 16:55:17;;;;;;;13.38;4.15;;;4.00;78.80;;;;;;5115107;28;20030;-49
2021/12/07 16:57:42;;;;;;;16.93;4.50;;;4.00;78.50;;;;;;5114652;28;20024;-50
2021/12/07 17:00:12;;;;;;;8.45;3.50;;;4.00;78.70;;;;;;5114056;28;20490;-50
2021/12/07 17:02:38;;;;;;;9.63;2.92;;;4.10;78.20;;;;;;5113622;28;20124;-50
2021/12/07 17:05:11;;;;;;;12.75;2.63;;;4.00;78.50;;;;;;5112682;28;20020;-49
2021/12/07 17:07:38;;;;;;;16.02;3.35;;;4.00;78.80;;;;;;5114842;28;20104;-51
2021/12/07 17:10:06;;;;;;;8.20;3.50;;;3.90;79.00;;;;;;5113647;28;20432;-49
2021/12/07 17:12:32;;;;;;;8.70;2.67;;;4.10;78.50;;;;;;5114041;28;20020;-50
2021/12/07 17:14:57;;;;;;;14.35;2.65;;;4.10;78.40;;;;;;5112989;28;20035;-50
2021/12/07 17:17:23;;;;;;;5.72;2.55;;;4.00;78.60;;;;;;5113141;28;20028;-49
2021/12/07 17:19:49;;;;;;;5.78;1.63;;;4.00;78.50;;;;;;5113301;28;20357;-51
2021/12/07 17:22:15;;;;;;;6.55;2.13;;;4.10;78.40;;;;;;5114245;28;20028;-48
2021/12/07 17:24:41;;;;;;;14.45;2.85;;;4.00;78.60;;;;;;5115199;28;20052;-49
2021/12/07 17:27:08;;;;;;;7.57;2.35;;;4.00;78.80;;;;;;5113032;28;20486;-51
2021/12/07 17:29:34;;;;;;;11.20;3.85;;;4.00;78.80;;;;;;5112654;28;20030;-51
2021/12/07 17:32:00;;;;;;;9.60;3.50;;;4.10;78.40;;;;;;5114182;28;20030;-49
2021/12/07 17:34:26;;;;;;;10.68;2.78;;;4.10;78.30;;;;;;5113707;28;20031;-49
2021/12/07 17:36:52;;;;;;;7.30;2.22;;;4.20;78.20;;;;;;5111954;28;20068;-48
2021/12/07 17:39:17;;;;;;;14.30;2.38;;;4.10;78.30;;;;;;5114081;28;20024;-51
2021/12/07 17:41:44;;;;;;;6.97;2.15;;;4.10;78.40;;;;;;5114131;28;20104;-55
2021/12/07 17:44:10;;;;;;;9.02;3.63;;;4.10;78.60;;;;;;5112747;28;20168;-51
2021/12/07 17:46:39;;;;;;;8.38;2.40;;;4.10;78.70;;;;;;5113897;28;20356;-50
2021/12/07 17:49:07;;;;;;;9.20;3.13;;;4.20;78.70;;;;;;5113701;28;20023;-51
2021/12/07 17:51:32;;;;;;;6.75;2.03;;;4.20;78.60;;;;;;5113874;28;20031;-53
2021/12/07 17:53:58;;;;;;;13.80;3.05;;;4.20;78.60;;;;;;5113647;28;20490;-39
2021/12/07 17:56:24;;;;;;;8.85;3.22;;;4.20;78.60;;;;;;5113439;28;20053;-39
2021/12/07 17:58:50;;;;;;;12.05;3.15;;;4.20;78.40;;;;;;5113384;28;20032;-39
2021/12/07 18:01:16;;;;;;;9.77;4.28;;;4.30;78.00;;;;;;5114681;28;20101;-40
2021/12/07 18:03:44;;;;;;;10.85;2.67;;;4.30;77.80;;;;;;5113956;28;20107;-39
2021/12/07 18:06:10;;;;;;;12.68;3.40;;;4.30;78.00;;;;;;5114249;28;20016;-50
2021/12/07 18:08:36;;;;;;;17.20;3.95;;;4.30;77.70;;;;;;5112994;28;20024;-50
2021/12/07 18:11:02;;;;;;;6.60;2.78;;;4.30;78.30;;;;;;5113736;28;20023;-49
2021/12/07 18:13:28;;;;;;;8.63;2.30;;;4.30;78.00;;;;;;5111751;28;20023;-49
2021/12/07 18:15:54;;;;;;;9.70;3.70;;;4.30;77.70;;;;;;5113050;28;20427;-49
2021/12/07 18:18:19;;;;;;;12.02;4.13;;;4.30;77.80;;;;;;5113059;28;20020;-49
2021/12/07 18:20:45;;;;;;;6.20;2.60;;;4.40;77.20;;;;;;5113214;28;20022;-48
2021/12/07 18:23:18;;;;;;;12.55;2.70;;;4.50;77.00;;;;;;5113170;28;20023;-51
2021/12/07 18:25:44;;;;;;;5.95;3.35;;;4.50;76.90;;;;;;5113180;28;20494;-50
2021/12/07 18:28:11;;;;;;;18.27;3.20;;;4.50;76.80;;;;;;5112922;28;20028;-50
2021/12/07 18:30:41;;;;;;;11.63;3.53;;;4.50;76.70;;;;;;5111703;28;20089;-51
2021/12/07 18:33:12;;;;;;;6.75;3.13;;;4.50;76.60;;;;;;5112835;28;20036;-52
2021/12/07 18:35:39;;;;;;;9.20;2.30;;;4.60;76.50;;;;;;5113149;28;20032;-51
2021/12/07 18:38:06;;;;;;;8.02;4.13;;;4.60;76.40;;;;;;5113012;27;20028;-51
2021/12/07 18:40:32;;;;;;;8.35;1.85;;;4.50;76.80;;;;;;5112858;27;20031;-53
2021/12/07 18:42:58;;;;;;;13.68;2.95;;;4.60;76.30;;;;;;5094608;28;20053;-51
2021/12/07 18:45:24;;;;;;;3.97;1.80;;;4.70;76.00;;;;;;5113227;28;20023;-49
2021/12/07 18:47:50;;;;;;;7.50;2.97;;;4.80;75.70;;;;;;5113051;28;20389;-51
2021/12/07 18:50:19;;;;;;;10.15;2.58;;;4.70;75.80;;;;;;5117448;28;20098;-53
2021/12/07 18:52:46;;;;;;;4.70;2.17;;;4.70;75.60;;;;;;5117201;28;20421;-53
2021/12/07 18:55:14;;;;;;;7.88;2.90;;;4.80;75.50;;;;;;5117066;28;20497;-52
2021/12/07 18:57:40;;;;;;;11.20;2.72;;;4.80;75.50;;;;;;5116978;28;20077;-50
2021/12/07 19:00:09;;;;;;;11.00;4.85;;;4.80;75.50;;;;;;5116951;27;20028;-49
2021/12/07 19:02:35;;;;;;;9.65;2.50;;;4.80;75.60;;;;;;5115347;28;20043;-52
2021/12/07 19:05:02;;;;;;;10.65;3.47;;;4.80;75.00;;;;;;5116653;27;20024;-50
2021/12/07 19:07:27;;;;;;;6.60;2.80;;;4.80;75.10;;;;;;5116125;28;20016;-51
2021/12/07 19:09:53;;;;;;;9.43;2.60;;;4.80;75.00;;;;;;5115467;28;20031;-53
2021/12/07 19:12:19;;;;;;;3.15;2.03;;;4.80;75.10;;;;;;5116553;28;20034;-52
2021/12/07 19:14:44;;;;;;;11.35;2.50;;;4.90;75.00;;;;;;5116563;28;20026;-49
2021/12/07 19:17:10;;;;;;;5.72;2.05;;;4.90;74.90;;;;;;5116192;28;20050;-49
2021/12/07 19:19:36;;;;;;;10.57;2.85;;;4.90;74.90;;;;;;5115151;28;20027;-49
2021/12/07 19:22:02;;;;;;;8.57;3.35;;;4.90;75.20;;;;;;5116135;28;20027;-49
2021/12/07 19:24:28;;;;;;;5.50;2.25;;;4.90;75.00;;;;;;5116874;28;20047;-47
2021/12/07 19:26:54;;;;;;;4.75;1.90;;;4.90;75.00;;;;;;5116387;28;20472;-49
2021/12/07 19:29:20;;;;;;;9.85;2.15;;;5.00;75.20;;;;;;5116160;28;20028;-48
2021/12/07 19:31:45;;;;;;;9.15;2.67;;;4.90;75.50;;;;;;5116822;28;20043;-50
2021/12/07 19:34:11;;;;;;;7.47;2.95;;;4.90;75.50;;;;;;5116695;28;20108;-51
2021/12/07 19:36:37;;;;;;;11.57;4.53;;;4.90;75.70;;;;;;5116263;28;20039;-51
2021/12/07 19:39:05;;;;;;;9.10;3.53;;;4.90;75.60;;;;;;5116207;28;20031;-48
2021/12/07 19:41:31;;;;;;;8.27;4.65;;;5.00;75.80;;;;;;5116034;28;20034;-50
2021/12/07 19:43:56;;;;;;;6.22;3.35;;;5.00;75.80;;;;;;5115835;28;20527;-49
2021/12/07 19:46:23;;;;;;;7.05;2.75;;;5.00;75.90;;;;;;5116409;28;20022;-52
2021/12/07 19:48:49;;;;;;;6.38;2.42;;;4.90;76.20;;;;;;5116086;28;20053;-49
2021/12/07 19:51:27;;;;;;;5.05;2.47;;;5.00;76.20;;;;;;5115959;28;20036;-49
2021/12/07 19:54:05;;;;;;;5.70;2.88;;;5.10;76.10;;;;;;5098926;28;20031;-50
2021/12/07 19:56:35;;;;;;;6.20;2.42;;;5.00;76.30;;;;;;5115992;28;20016;-51
2021/12/07 19:59:03;;;;;;;3.10;1.95;;;5.10;76.10;;;;;;5115900;28;20024;-49
2021/12/07 20:01:29;;;;;;;6.47;2.72;;;5.20;76.10;;;;;;5115878;28;20044;-51
2021/12/07 20:03:57;;;;;;;6.70;2.53;;;5.10;76.50;;;;;;5116226;28;20019;-48
2021/12/07 20:06:26;;;;;;;4.82;2.22;;;5.20;76.40;;;;;;5116241;27;20383;-49
2021/12/07 20:08:52;;;;;;;3.33;1.95;;;5.20;76.10;;;;;;5116067;28;20028;-50
2021/12/07 20:11:20;;;;;;;5.82;2.10;;;5.30;75.80;;;;;;5116330;28;20523;-49
2021/12/07 20:13:47;;;;;;;7.18;2.30;;;5.30;75.70;;;;;;5115943;28;20493;-48
2021/12/07 20:16:12;;;;;;;6.63;2.63;;;5.30;75.60;;;;;;5115758;28;20475;-49
2021/12/07 20:18:43;;;;;;;6.95;1.95;;;5.30;75.70;;;;;;5118094;28;20020;-50
2021/12/07 20:21:16;;;;;;;7.18;1.80;;;5.30;76.00;;;;;;5118925;28;20027;-52
2021/12/07 20:23:46;;;;;;;6.70;1.88;;;5.30;75.90;;;;;;5119370;28;20072;-53
2021/12/07 20:26:14;;;;;;;7.35;1.70;;;5.30;75.80;;;;;;5118409;28;20416;-51
2021/12/07 20:28:40;;;;;;;7.47;1.98;;;5.40;75.40;;;;;;5117137;28;20032;-52
2021/12/07 20:31:06;;;;;;;6.82;2.13;;;5.30;75.40;;;;;;5115909;28;20015;-48
2021/12/07 20:33:32;;;;;;;6.43;1.77;;;5.40;75.00;;;;;;5116608;28;20031;-50
2021/12/07 20:35:58;;;;;;;1.48;1.13;;;5.30;75.10;;;;;;5116217;28;20518;-50
2021/12/07 20:38:24;;;;;;;8.68;1.98;;;5.30;74.80;;;;;;5115374;28;20019;-50
2021/12/07 20:40:50;;;;;;;6.22;1.85;;;5.40;74.80;;;;;;5115420;28;20020;-51
2021/12/07 20:43:16;;;;;;;4.32;1.75;;;5.50;74.50;;;;;;5115521;28;20047;-50
2021/12/07 20:45:46;;;;;;;13.88;2.70;;;5.50;74.10;;;;;;5115160;28;20091;-50
2021/12/07 20:48:14;;;;;;;4.47;2.30;;;5.50;74.10;;;;;;5115491;28;20030;-48
2021/12/07 20:50:44;;;;;;;7.10;2.90;;;5.50;74.10;;;;;;5115204;28;20486;-49
2021/12/07 20:53:16;;;;;;;4.60;2.40;;;5.50;74.10;;;;;;5115355;28;20016;-51
2021/12/07 20:55:47;;;;;;;6.50;2.05;;;5.50;74.20;;;;;;5114694;28;20076;-52
2021/12/07 20:58:14;;;;;;;13.23;2.38;;;5.60;73.70;;;;;;5114750;28;20034;-54
2021/12/07 21:00:40;;;;;;;8.52;2.53;;;5.60;73.50;;;;;;5115487;28;20059;-49
2021/12/07 21:03:06;;;;;;;9.80;3.55;;;5.60;73.10;;;;;;5115534;28;20040;-53
2021/12/07 21:05:32;;;;;;;4.50;2.55;;;5.60;73.10;;;;;;5114817;28;20042;-52
2021/12/07 21:07:57;;;;;;;8.98;2.22;;;5.60;73.20;;;;;;5114943;28;20024;-48
2021/12/07 21:10:24;;;;;;;4.55;2.08;;;5.60;73.20;;;;;;5114903;28;20111;-51
2021/12/07 21:12:50;;;;;;;5.00;2.45;;;5.70;72.50;;;;;;5115230;28;20035;-50
2021/12/07 21:15:21;;;;;;;6.93;2.75;;;5.70;72.70;;;;;;5114540;28;20024;-49
2021/12/07 21:17:48;;;;;;;9.90;3.90;;;5.70;72.50;;;;;;5114689;28;20039;-38
2021/12/07 21:20:14;;;;;;;6.45;3.10;;;5.70;72.60;;;;;;5115688;28;20027;-39
2021/12/07 21:22:40;;;;;;;7.43;2.33;;;5.70;72.30;;;;;;5115881;28;20101;-49
2021/12/07 21:25:06;;;;;;;3.85;1.80;;;5.80;71.50;;;;;;5115939;28;20413;-51
2021/12/07 21:27:33;;;;;;;6.70;1.83;;;5.80;71.60;;;;;;5114869;28;20383;-49
2021/12/07 21:29:58;;;;;;;10.88;2.50;;;5.80;71.60;;;;;;5113356;28;20020;-51
2021/12/07 21:32:24;;;;;;;7.82;1.70;;;5.80;71.90;;;;;;5114585;28;20050;-53
2021/12/07 21:34:50;;;;;;;5.63;1.70;;;5.80;71.20;;;;;;5114616;28;20108;-53
2021/12/07 21:37:18;;;;;;;5.97;2.58;;;5.80;71.60;;;;;;5114754;28;20027;-49
2021/12/07 21:39:45;;;;;;;4.60;2.20;;;5.80;71.60;;;;;;5113302;28;20036;-50
2021/12/07 21:42:12;;;;;;;6.13;2.80;;;5.90;71.10;;;;;;5114580;28;20023;-53
2021/12/07 21:44:38;;;;;;;16.67;4.30;;;5.80;71.20;;;;;;5114460;28;20476;-48
2021/12/07 21:47:04;;;;;;;5.40;2.85;;;5.80;71.40;;;;;;5114448;28;20376;-51
2021/12/07 21:49:30;;;;;;;8.50;2.42;;;5.90;71.00;;;;;;5114939;28;20019;-49
2021/12/07 21:51:56;;;;;;;8.60;2.65;;;5.90;71.20;;;;;;5112787;28;20073;-49
2021/12/07 21:54:21;;;;;;;6.43;3.05;;;5.80;71.20;;;;;;5114490;28;20102;-54
2021/12/07 21:56:48;;;;;;;16.42;3.05;;;5.80;71.20;;;;;;5114643;28;20020;-51
2021/12/07 21:59:17;;;;;;;16.73;5.38;;;5.80;71.40;;;;;;5114721;28;20019;-49
2021/12/07 22:01:43;;;;;;;9.40;3.72;;;5.80;71.60;;;;;;5114328;28;20551;-51
2021/12/07 22:04:09;;;;;;;7.88;4.32;;;5.80;71.10;;;;;;5115447;28;20050;-51
2021/12/07 22:06:36;;;;;;;6.38;2.65;;;5.80;71.30;;;;;;5115670;28;20483;-51
2021/12/07 22:09:08;;;;;;;5.70;2.00;;;5.80;71.10;;;;;;5115443;28;20405;-52
2021/12/07 22:11:34;;;;;;;5.47;1.92;;;5.80;70.70;;;;;;5114437;28;20024;-52
2021/12/07 22:14:00;;;;;;;5.70;2.15;;;5.90;70.20;;;;;;5114259;28;20081;-50
2021/12/07 22:16:26;;;;;;;8.38;1.60;;;5.90;70.00;;;;;;5114076;28;20035;-49
2021/12/07 22:18:52;;;;;;;2.03;1.27;;;5.90;69.80;;;;;;5113903;28;20031;-50
2021/12/07 22:21:18;;;;;;;4.93;1.45;;;5.90;69.60;;;;;;5095350;28;20123;-52
2021/12/07 22:23:45;;;;;;;3.35;1.77;;;5.90;69.60;;;;;;5114300;28;20020;-53
2021/12/07 22:26:11;;;;;;;4.75;1.85;;;5.90;69.40;;;;;;5118069;28;20059;-53
2021/12/07 22:28:37;;;;;;;3.50;1.60;;;5.90;69.20;;;;;;5118075;28;20119;-53
2021/12/07 22:31:04;;;;;;;4.75;1.80;;;6.00;68.90;;;;;;5118578;28;20048;-50
2021/12/07 22:33:31;;;;;;;17.58;3.97;;;6.00;68.40;;;;;;5118125;28;20106;-54
2021/12/07 22:35:57;;;;;;;10.20;2.00;;;6.00;68.10;;;;;;5117351;28;20076;-52
2021/12/07 22:38:23;;;;;;;3.97;1.48;;;6.00;68.40;;;;;;5117518;28;20024;-52
2021/12/07 22:40:49;;;;;;;5.75;1.13;;;6.00;68.10;;;;;;5117111;28;20028;-51
2021/12/07 22:43:17;;;;;;;2.92;1.02;;;6.00;68.20;;;;;;5117514;28;20027;-53
2021/12/07 22:45:43;;;;;;;6.68;1.65;;;5.90;69.30;;;;;;5117729;28;20054;-52
2021/12/07 22:48:12;;;;;;;1.27;0.98;;;5.80;70.50;;;;;;5117474;27;20053;-53
2021/12/07 22:50:39;;;;;;;8.55;2.05;;;5.70;72.40;;;;;;5117594;28;20111;-50
2021/12/07 22:53:06;;;;;;;8.48;1.73;;;5.50;73.40;;;;;;5117575;28;20026;-48
2021/12/07 22:55:32;;;;;;;3.67;1.38;;;5.30;75.20;;;;;;5117767;28;20102;-48
2021/12/07 22:57:58;;;;;;;7.43;3.05;;;5.30;76.20;;;;;;5118047;27;20051;-52
